sensor_id;sensor_type;location;lat;lon;timestamp;P1;durP1;ratioP1;P2;durP2;ratioP2
39848;SDS011;25518;47.878;15.914;2023-02-28T07:15:54;15.63;;;7.97;;
39848;SDS011;25518;47.878;15.914;2023-02-28T09:11:47;14.88;;;8.02;;
39848;SDS011;25518;47.878;15.914;2023-02-28T09:14:37;11.38;;;7.18;;
39848;SDS011;25518;47.878;15.914;2023-02-28T09:17:27;16.48;;;8.57;;
39848;SDS011;25518;47.878;15.914;2023-02-28T09:20:16;14.43;;;7.75;;
39848;SDS011;25518;47.878;15.914;2023-02-28T09:23:07;12.50;;;6.88;;
39848;SDS011;25518;47.878;15.914;2023-02-28T09:25:57;12.07;;;6.20;;
39848;SDS011;25518;47.878;15.914;2023-02-28T09:28:47;14.70;;;7.00;;
39848;SDS011;25518;47.878;15.914;2023-02-28T09:31:37;10.80;;;5.43;;
39848;SDS011;25518;47.878;15.914;2023-02-28T09:34:27;13.73;;;7.97;;
39848;SDS011;25518;47.878;15.914;2023-02-28T09:37:19;16.30;;;8.40;;
39848;SDS011;25518;47.878;15.914;2023-02-28T09:40:09;13.13;;;7.05;;
39848;SDS011;25518;47.878;15.914;2023-02-28T09:43:00;12.73;;;7.32;;
39848;SDS011;25518;47.878;15.914;2023-02-28T09:45:52;13.63;;;7.53;;
39848;SDS011;25518;47.878;15.914;2023-02-28T09:48:50;15.43;;;8.40;;
39848;SDS011;25518;47.878;15.914;2023-02-28T09:54:33;16.67;;;8.90;;
39848;SDS011;25518;47.878;15.914;2023-02-28T10:03:05;15.20;;;8.93;;
39848;SDS011;25518;47.878;15.914;2023-02-28T10:12:09;12.07;;;7.20;;
39848;SDS011;25518;47.878;15.914;2023-02-28T10:15:00;15.30;;;8.02;;
39848;SDS011;25518;47.878;15.914;2023-02-28T10:17:54;13.93;;;8.00;;
39848;SDS011;25518;47.878;15.914;2023-02-28T10:20:49;16.00;;;8.93;;
39848;SDS011;25518;47.878;15.914;2023-02-28T10:23:41;18.30;;;8.32;;
39848;SDS011;25518;47.878;15.914;2023-02-28T10:26:33;18.57;;;9.53;;
39848;SDS011;25518;47.878;15.914;2023-02-28T10:29:26;17.27;;;8.60;;
39848;SDS011;25518;47.878;15.914;2023-02-28T10:32:21;14.48;;;8.88;;
39848;SDS011;25518;47.878;15.914;2023-02-28T10:38:10;16.45;;;8.43;;
39848;SDS011;25518;47.878;15.914;2023-02-28T10:41:30;17.52;;;9.85;;
39848;SDS011;25518;47.878;15.914;2023-02-28T10:44:19;16.95;;;9.18;;
39848;SDS011;25518;47.878;15.914;2023-02-28T10:47:14;15.68;;;9.35;;
39848;SDS011;25518;47.878;15.914;2023-02-28T10:50:08;18.15;;;9.18;;
39848;SDS011;25518;47.878;15.914;2023-02-28T10:56:36;17.60;;;9.18;;
39848;SDS011;25518;47.878;15.914;2023-02-28T10:59:28;15.50;;;8.65;;
39848;SDS011;25518;47.878;15.914;2023-02-28T11:02:36;17.27;;;8.32;;
39848;SDS011;25518;47.878;15.914;2023-02-28T11:05:32;17.02;;;8.93;;
39848;SDS011;25518;47.878;15.914;2023-02-28T11:08:24;16.23;;;9.00;;
39848;SDS011;25518;47.878;15.914;2023-02-28T11:11:13;15.38;;;9.20;;
39848;SDS011;25518;47.878;15.914;2023-02-28T11:14:05;15.02;;;8.73;;
39848;SDS011;25518;47.878;15.914;2023-02-28T11:17:13;16.73;;;9.15;;
39848;SDS011;25518;47.878;15.914;2023-02-28T11:20:10;15.98;;;8.98;;
39848;SDS011;25518;47.878;15.914;2023-02-28T11:23:12;13.57;;;8.70;;
39848;SDS011;25518;47.878;15.914;2023-02-28T11:26:03;16.75;;;9.02;;
39848;SDS011;25518;47.878;15.914;2023-02-28T16:39:40;17.37;;;10.20;;
39848;SDS011;25518;47.878;15.914;2023-02-28T20:31:47;32.42;;;18.40;;
39848;SDS011;25518;47.878;15.914;2023-02-28T23:00:53;48.90;;;25.17;;
39848;SDS011;25518;47.878;15.914;2023-02-28T23:03:43;52.38;;;26.80;;
